createdAt,value
2018-09-30T00:03:53.109Z,10.56
2018-09-30T00:08:47.912Z,10.74
2018-09-30T00:13:42.898Z,10.51
2018-09-30T00:18:37.811Z,10.54
2018-09-30T00:23:37.826Z,10.41
2018-09-30T00:28:33.561Z,10.49
2018-09-30T00:33:29.430Z,10.39
2018-09-30T00:38:24.324Z,10.43
2018-09-30T00:43:19.256Z,10.31
2018-09-30T00:48:14.140Z,10.41
2018-09-30T00:53:09.002Z,10.22
2018-09-30T00:58:03.790Z,10.27
2018-09-30T01:02:58.719Z,10.30
2018-09-30T01:07:53.577Z,10.26
2018-09-30T01:12:48.439Z,10.08
2018-09-30T01:17:43.330Z,9.90
2018-09-30T01:22:38.581Z,9.98
2018-09-30T01:27:33.407Z,10.06
2018-09-30T01:32:28.381Z,9.68
2018-09-30T01:37:23.265Z,9.82
2018-09-30T01:42:18.218Z,9.88
2018-09-30T01:47:13.173Z,9.87
2018-09-30T01:52:55.037Z,10.03
2018-09-30T01:57:49.907Z,9.64
2018-09-30T02:02:44.966Z,9.63
2018-09-30T02:07:39.793Z,9.70
2018-09-30T02:12:34.680Z,9.77
2018-09-30T02:17:29.504Z,9.88
2018-09-30T02:22:24.426Z,9.57
2018-09-30T02:27:19.311Z,9.64
2018-09-30T02:32:14.245Z,9.42
2018-09-30T02:37:09.226Z,9.48
2018-09-30T02:42:04.412Z,9.32
2018-09-30T02:46:59.231Z,9.45
2018-09-30T02:51:54.217Z,9.23
2018-09-30T02:56:49.362Z,9.23
2018-09-30T03:01:44.130Z,9.36
2018-09-30T03:06:44.284Z,9.28
2018-09-30T03:11:39.059Z,9.28
2018-09-30T03:16:33.922Z,9.28
2018-09-30T03:21:28.737Z,9.15
2018-09-30T03:26:23.636Z,9.04
2018-09-30T03:31:18.607Z,8.95
2018-09-30T03:36:13.447Z,9.05
2018-09-30T03:41:08.308Z,9.07
2018-09-30T03:46:03.277Z,8.96
2018-09-30T03:50:58.100Z,8.88
2018-09-30T03:55:53.195Z,8.99
2018-09-30T04:00:48.017Z,8.83
2018-09-30T04:05:42.803Z,8.83
2018-09-30T04:10:37.631Z,8.83
2018-09-30T04:15:32.424Z,8.78
2018-09-30T04:20:27.206Z,8.79
2018-09-30T04:25:22.037Z,8.65
2018-09-30T04:30:17.394Z,8.45
2018-09-30T04:35:12.182Z,8.47
2018-09-30T04:40:07.686Z,8.33
2018-09-30T04:45:02.610Z,8.37
2018-09-30T04:49:57.692Z,8.63
2018-09-30T04:54:52.624Z,8.61
2018-09-30T04:59:47.569Z,8.44
2018-09-30T05:04:42.520Z,8.41
2018-09-30T05:09:37.380Z,8.38
2018-09-30T05:14:32.177Z,8.39
2018-09-30T05:19:27.040Z,8.29
2018-09-30T05:24:21.814Z,8.35
2018-09-30T05:29:16.596Z,8.29
2018-09-30T05:34:11.397Z,8.28
2018-09-30T05:39:09.583Z,8.31
2018-09-30T05:44:05.145Z,8.46
2018-09-30T05:49:00.043Z,8.50
2018-09-30T05:53:54.906Z,8.56
2018-09-30T05:58:49.833Z,8.54
2018-09-30T06:03:44.721Z,8.62
2018-09-30T06:08:39.682Z,8.72
2018-09-30T06:13:34.598Z,8.73
2018-09-30T06:18:29.496Z,8.84
2018-09-30T06:23:24.445Z,9.11
2018-09-30T06:28:19.403Z,9.19
2018-09-30T06:33:14.369Z,9.25
2018-09-30T06:38:09.264Z,9.39
2018-09-30T06:43:04.239Z,9.56
2018-09-30T06:47:59.565Z,9.66
2018-09-30T06:52:54.550Z,9.81
2018-09-30T06:57:50.138Z,9.92
2018-09-30T07:02:45.292Z,10.04
2018-09-30T07:07:40.332Z,10.28
2018-09-30T07:12:35.330Z,10.30
2018-09-30T07:17:30.464Z,10.41
2018-09-30T07:22:25.515Z,10.61
2018-09-30T07:27:20.387Z,10.92
2018-09-30T07:32:15.325Z,11.04
2018-09-30T07:37:10.351Z,11.40
2018-09-30T07:42:22.890Z,11.96
2018-09-30T07:47:20.859Z,12.45
2018-09-30T07:52:15.818Z,13.04
2018-09-30T07:57:10.861Z,13.35
2018-09-30T08:02:06.195Z,13.34
2018-09-30T08:07:02.365Z,13.53
2018-09-30T08:11:57.686Z,13.85
2018-09-30T08:16:53.054Z,14.03
2018-09-30T08:21:48.102Z,14.00
2018-09-30T08:26:43.709Z,14.35
2018-09-30T08:31:38.650Z,14.34
2018-09-30T08:36:33.752Z,14.54
2018-09-30T08:41:28.639Z,14.88
2018-09-30T08:46:23.712Z,15.35
2018-09-30T08:51:18.725Z,15.32
2018-09-30T08:56:15.382Z,15.43
2018-09-30T09:01:10.148Z,15.72
2018-09-30T09:06:05.124Z,15.96
2018-09-30T09:11:00.215Z,15.80
2018-09-30T09:15:55.137Z,16.20
2018-09-30T09:20:50.447Z,16.56
2018-09-30T09:25:46.105Z,16.54
2018-09-30T09:30:41.373Z,16.42
2018-09-30T09:35:36.635Z,16.68
2018-09-30T09:40:31.714Z,16.53
2018-09-30T09:45:26.780Z,16.84
2018-09-30T09:50:21.771Z,17.09
2018-09-30T09:55:16.773Z,16.80
2018-09-30T10:00:11.957Z,16.91
2018-09-30T10:05:07.015Z,17.06
2018-09-30T10:10:01.987Z,16.79
2018-09-30T10:14:56.969Z,16.66
2018-09-30T10:19:51.903Z,16.88
2018-09-30T10:24:46.894Z,16.80
2018-09-30T10:29:42.508Z,16.95
2018-09-30T10:34:37.432Z,16.95
2018-09-30T10:39:32.357Z,16.98
2018-09-30T10:44:27.265Z,17.11
2018-09-30T10:49:22.216Z,17.09
2018-09-30T10:54:17.067Z,17.00
2018-09-30T10:59:13.037Z,16.92
2018-09-30T11:04:07.989Z,16.71
2018-09-30T11:09:03.050Z,16.70
2018-09-30T11:13:58.177Z,16.65
2018-09-30T11:18:53.269Z,16.52
2018-09-30T11:23:48.124Z,16.55
2018-09-30T11:28:42.990Z,16.63
2018-09-30T11:33:37.883Z,16.64
2018-09-30T11:38:32.718Z,16.66
2018-09-30T11:43:27.594Z,16.85
2018-09-30T11:48:22.453Z,16.93
2018-09-30T12:06:11.707Z,16.95
2018-09-30T12:13:38.040Z,17.43
2018-09-30T12:18:33.050Z,17.49
2018-09-30T12:23:28.927Z,17.47
2018-09-30T12:28:24.941Z,17.35
2018-09-30T12:33:19.868Z,17.26
2018-09-30T12:38:15.002Z,17.25
2018-09-30T12:43:10.930Z,17.26
2018-09-30T12:48:05.815Z,17.33
2018-09-30T12:53:00.717Z,17.23
2018-09-30T12:57:55.641Z,17.11
2018-09-30T13:02:50.532Z,17.24
2018-09-30T13:07:45.522Z,17.43
2018-09-30T13:12:40.526Z,17.42
2018-09-30T13:17:35.482Z,17.47
2018-09-30T13:22:30.451Z,17.80
2018-09-30T13:27:25.311Z,17.95
2018-09-30T13:32:20.121Z,18.04
2018-09-30T13:37:15.134Z,18.17
2018-09-30T13:42:11.890Z,18.63
2018-09-30T13:47:06.950Z,18.63
2018-09-30T13:52:01.923Z,18.67
2018-09-30T13:56:57.269Z,18.73
2018-09-30T14:01:52.254Z,18.74
2018-09-30T14:06:47.257Z,18.72
2018-09-30T14:11:42.228Z,18.78
2018-09-30T14:16:37.191Z,18.95
2018-09-30T14:21:32.282Z,18.86
2018-09-30T14:26:27.278Z,18.67
2018-09-30T14:31:23.308Z,18.63
2018-09-30T14:36:18.515Z,18.19
2018-09-30T14:41:13.470Z,17.88
2018-09-30T14:46:08.662Z,18.05
2018-09-30T14:51:03.761Z,18.26
2018-09-30T14:55:58.673Z,18.33
2018-09-30T15:00:53.604Z,18.21
2018-09-30T15:05:49.537Z,18.22
2018-09-30T15:10:45.128Z,18.29
2018-09-30T15:15:40.021Z,18.36
2018-09-30T15:20:35.282Z,18.39
2018-09-30T15:25:30.352Z,18.61
2018-09-30T15:30:25.467Z,18.67
2018-09-30T15:35:20.545Z,18.59
2018-09-30T15:40:15.525Z,18.29
2018-09-30T15:45:11.706Z,18.10
2018-09-30T15:50:07.100Z,18.13
2018-09-30T15:55:02.126Z,18.18
2018-09-30T15:59:57.113Z,18.08
2018-09-30T16:04:52.060Z,17.85
2018-09-30T16:09:46.974Z,17.67
2018-09-30T16:14:41.882Z,17.52
2018-09-30T16:19:36.853Z,17.43
2018-09-30T16:24:31.801Z,17.45
2018-09-30T16:29:26.913Z,17.43
2018-09-30T16:34:21.833Z,17.27
2018-09-30T16:39:16.842Z,17.11
2018-09-30T16:44:11.808Z,17.06
2018-09-30T16:49:06.787Z,17.01
2018-09-30T16:54:01.941Z,16.90
2018-09-30T17:11:51.251Z,16.75
2018-09-30T17:16:46.237Z,16.54
2018-09-30T17:21:41.223Z,16.39
2018-09-30T17:26:36.442Z,16.21
2018-09-30T17:31:31.254Z,16.13
2018-09-30T17:36:26.146Z,15.97
2018-09-30T17:41:21.016Z,15.91
2018-09-30T17:46:15.932Z,15.90
2018-09-30T17:51:11.920Z,15.80
2018-09-30T17:56:06.883Z,15.73
2018-09-30T18:01:02.805Z,15.78
2018-09-30T18:05:57.663Z,15.74
2018-09-30T18:10:52.539Z,15.70
2018-09-30T18:15:47.437Z,15.73
2018-09-30T18:20:43.358Z,15.60
2018-09-30T18:25:38.720Z,15.55
2018-09-30T18:30:33.925Z,15.48
2018-09-30T18:35:29.212Z,15.43
2018-09-30T18:40:26.503Z,15.42
2018-09-30T18:45:22.260Z,15.41
2018-09-30T18:50:19.329Z,15.33
2018-09-30T18:55:16.060Z,15.17
2018-09-30T19:00:20.417Z,15.24
2018-09-30T19:05:16.447Z,15.12
2018-09-30T19:10:12.576Z,15.22
2018-09-30T19:15:10.233Z,15.32
2018-09-30T19:20:06.316Z,15.43
2018-09-30T19:25:01.558Z,15.40
2018-09-30T19:29:56.673Z,15.55
2018-09-30T19:34:52.117Z,15.51
2018-09-30T19:39:47.151Z,15.60
2018-09-30T19:44:42.382Z,15.75
2018-09-30T19:49:39.381Z,15.77
2018-09-30T19:54:34.964Z,15.77
2018-09-30T19:59:31.634Z,15.80
2018-09-30T20:04:27.654Z,15.84
2018-09-30T20:09:22.562Z,15.67
2018-09-30T20:14:17.784Z,15.08
2018-09-30T20:19:12.945Z,14.80
2018-09-30T20:24:07.927Z,14.79
2018-09-30T20:29:03.086Z,14.75
2018-09-30T20:33:58.047Z,14.71
2018-09-30T20:38:52.976Z,14.67
2018-09-30T20:43:48.043Z,14.72
2018-09-30T20:48:42.955Z,14.65
2018-09-30T20:53:37.826Z,14.61
2018-09-30T20:58:32.653Z,14.54
2018-09-30T21:03:27.539Z,14.55
2018-09-30T21:08:22.383Z,14.49
2018-09-30T21:13:17.519Z,14.39
2018-09-30T21:18:12.405Z,14.44
2018-09-30T21:28:17.105Z,14.32
2018-09-30T21:33:12.778Z,14.20
2018-09-30T21:38:07.744Z,14.08
2018-09-30T21:43:03.068Z,13.91
2018-09-30T21:47:57.897Z,13.93
2018-09-30T21:52:52.893Z,13.78
2018-09-30T21:57:47.726Z,13.77
2018-09-30T22:02:42.545Z,13.72
2018-09-30T22:07:37.402Z,13.64
2018-09-30T22:12:32.206Z,13.64
2018-09-30T22:17:27.590Z,13.48
2018-09-30T22:22:22.443Z,13.55
2018-09-30T22:27:17.247Z,13.57
2018-09-30T22:32:12.109Z,13.59
2018-09-30T22:37:06.984Z,13.58
2018-09-30T22:42:01.905Z,13.49
2018-09-30T22:46:56.872Z,13.48
2018-09-30T22:51:51.726Z,13.54
2018-09-30T22:56:46.538Z,13.53
2018-09-30T23:01:41.416Z,13.43
2018-09-30T23:06:36.683Z,13.35
2018-09-30T23:11:31.537Z,13.36
2018-09-30T23:16:26.413Z,13.31
2018-09-30T23:21:21.329Z,13.27
2018-09-30T23:26:16.223Z,13.24
2018-09-30T23:31:11.036Z,13.27
2018-09-30T23:36:05.946Z,13.25
2018-09-30T23:41:00.767Z,13.14
2018-09-30T23:45:55.646Z,13.02
2018-09-30T23:50:51.057Z,13.02
2018-09-30T23:55:45.990Z,13.01
